sensor_id;sensor_type;location;lat;lon;timestamp;pressure;altitude;pressure_sealevel;temperature;humidity
46682;BME280;34101;53.430;-2.224;2024-02-26T00:01:11;100137.98;;;6.80;71.26
46682;BME280;34101;53.430;-2.224;2024-02-26T00:03:38;100143.12;;;6.83;71.02
46682;BME280;34101;53.430;-2.224;2024-02-26T00:06:06;100145.43;;;6.85;70.93
46682;BME280;34101;53.430;-2.224;2024-02-26T00:08:33;100154.49;;;6.87;70.88
46682;BME280;34101;53.430;-2.224;2024-02-26T00:11:01;100155.25;;;6.89;70.85
46682;BME280;34101;53.430;-2.224;2024-02-26T00:13:28;100160.55;;;6.88;70.89
46682;BME280;34101;53.430;-2.224;2024-02-26T00:15:55;100161.30;;;6.90;70.81
46682;BME280;34101;53.430;-2.224;2024-02-26T00:18:23;100162.64;;;6.83;70.94
46682;BME280;34101;53.430;-2.224;2024-02-26T00:20:50;100165.16;;;6.82;71.02
46682;BME280;34101;53.430;-2.224;2024-02-26T00:23:18;100172.60;;;6.82;70.88
46682;BME280;34101;53.430;-2.224;2024-02-26T00:25:45;100175.35;;;6.79;71.10
46682;BME280;34101;53.430;-2.224;2024-02-26T00:28:13;100176.46;;;6.79;70.87
46682;BME280;34101;53.430;-2.224;2024-02-26T00:30:40;100180.38;;;6.78;70.92
46682;BME280;34101;53.430;-2.224;2024-02-26T00:33:08;100187.43;;;6.78;71.00
46682;BME280;34101;53.430;-2.224;2024-02-26T00:35:35;100189.53;;;6.75;71.02
46682;BME280;34101;53.430;-2.224;2024-02-26T00:38:03;100194.51;;;6.76;71.10
46682;BME280;34101;53.430;-2.224;2024-02-26T00:40:30;100199.36;;;6.76;71.01
46682;BME280;34101;53.430;-2.224;2024-02-26T00:42:57;100201.75;;;6.70;71.02
46682;BME280;34101;53.430;-2.224;2024-02-26T00:45:25;100210.20;;;6.70;71.14
46682;BME280;34101;53.430;-2.224;2024-02-26T00:47:52;100217.05;;;6.72;71.10
46682;BME280;34101;53.430;-2.224;2024-02-26T00:50:20;100215.83;;;6.74;71.14
46682;BME280;34101;53.430;-2.224;2024-02-26T00:52:47;100214.98;;;6.72;70.86
46682;BME280;34101;53.430;-2.224;2024-02-26T00:55:15;100218.02;;;6.67;71.11
46682;BME280;34101;53.430;-2.224;2024-02-26T00:57:42;100224.82;;;6.66;71.21
46682;BME280;34101;53.430;-2.224;2024-02-26T01:00:10;100228.52;;;6.65;71.02
46682;BME280;34101;53.430;-2.224;2024-02-26T01:02:38;100234.79;;;6.64;71.19
46682;BME280;34101;53.430;-2.224;2024-02-26T01:05:06;100244.60;;;6.62;71.16
46682;BME280;34101;53.430;-2.224;2024-02-26T01:07:33;100248.52;;;6.59;71.39
46682;BME280;34101;53.430;-2.224;2024-02-26T01:10:01;100252.96;;;6.56;71.51
46682;BME280;34101;53.430;-2.224;2024-02-26T01:12:28;100256.14;;;6.55;71.59
46682;BME280;34101;53.430;-2.224;2024-02-26T01:14:56;100257.52;;;6.51;71.29
46682;BME280;34101;53.430;-2.224;2024-02-26T01:17:23;100259.57;;;6.48;71.51
46682;BME280;34101;53.430;-2.224;2024-02-26T01:19:51;100260.14;;;6.45;71.61
46682;BME280;34101;53.430;-2.224;2024-02-26T01:22:18;100262.95;;;6.46;71.64
46682;BME280;34101;53.430;-2.224;2024-02-26T01:24:45;100269.53;;;6.44;71.68
46682;BME280;34101;53.430;-2.224;2024-02-26T01:27:13;100275.84;;;6.43;71.61
46682;BME280;34101;53.430;-2.224;2024-02-26T01:29:40;100275.57;;;6.36;71.76
46682;BME280;34101;53.430;-2.224;2024-02-26T01:32:08;100279.68;;;6.39;71.69
46682;BME280;34101;53.430;-2.224;2024-02-26T01:34:35;100289.51;;;6.39;71.71
46682;BME280;34101;53.430;-2.224;2024-02-26T01:37:03;100293.18;;;6.35;71.75
46682;BME280;34101;53.430;-2.224;2024-02-26T01:39:30;100301.73;;;6.36;71.82
46682;BME280;34101;53.430;-2.224;2024-02-26T01:41:57;100305.25;;;6.35;71.91
46682;BME280;34101;53.430;-2.224;2024-02-26T01:44:26;100314.58;;;6.37;71.82
46682;BME280;34101;53.430;-2.224;2024-02-26T01:46:54;100313.65;;;6.32;71.60
46682;BME280;34101;53.430;-2.224;2024-02-26T01:49:21;100315.57;;;6.30;71.80
46682;BME280;34101;53.430;-2.224;2024-02-26T01:51:48;100320.61;;;6.30;71.90
46682;BME280;34101;53.430;-2.224;2024-02-26T01:54:16;100321.43;;;6.32;71.96
46682;BME280;34101;53.430;-2.224;2024-02-26T01:56:43;100323.77;;;6.30;71.79
46682;BME280;34101;53.430;-2.224;2024-02-26T01:59:10;100328.94;;;6.31;71.93
46682;BME280;34101;53.430;-2.224;2024-02-26T02:01:39;100334.82;;;6.29;71.82
46682;BME280;34101;53.430;-2.224;2024-02-26T02:04:11;100339.08;;;6.28;71.82
46682;BME280;34101;53.430;-2.224;2024-02-26T02:06:39;100344.40;;;6.26;71.78
46682;BME280;34101;53.430;-2.224;2024-02-26T02:09:08;100347.67;;;6.22;71.83
46682;BME280;34101;53.430;-2.224;2024-02-26T02:11:35;100356.22;;;6.22;71.83
46682;BME280;34101;53.430;-2.224;2024-02-26T02:14:03;100355.35;;;6.21;71.67
46682;BME280;34101;53.430;-2.224;2024-02-26T02:16:30;100355.87;;;6.19;71.84
46682;BME280;34101;53.430;-2.224;2024-02-26T02:18:58;100359.78;;;6.20;71.62
46682;BME280;34101;53.430;-2.224;2024-02-26T02:21:25;100361.31;;;6.18;71.75
46682;BME280;34101;53.430;-2.224;2024-02-26T02:23:52;100365.27;;;6.16;71.72
46682;BME280;34101;53.430;-2.224;2024-02-26T02:26:20;100366.15;;;6.15;71.72
46682;BME280;34101;53.430;-2.224;2024-02-26T02:28:48;100370.61;;;6.14;71.77
46682;BME280;34101;53.430;-2.224;2024-02-26T02:31:15;100372.23;;;6.12;71.60
46682;BME280;34101;53.430;-2.224;2024-02-26T02:33:43;100378.16;;;6.09;71.60
46682;BME280;34101;53.430;-2.224;2024-02-26T02:36:10;100386.25;;;6.08;71.80
46682;BME280;34101;53.430;-2.224;2024-02-26T02:38:38;100388.00;;;6.07;71.69
46682;BME280;34101;53.430;-2.224;2024-02-26T02:41:15;100389.15;;;6.05;71.71
46682;BME280;34101;53.430;-2.224;2024-02-26T02:43:42;100395.10;;;6.04;71.87
46682;BME280;34101;53.430;-2.224;2024-02-26T02:46:10;100401.85;;;6.03;72.02
46682;BME280;34101;53.430;-2.224;2024-02-26T02:48:38;100410.36;;;6.03;72.10
46682;BME280;34101;53.430;-2.224;2024-02-26T02:51:05;100412.56;;;6.04;72.06
46682;BME280;34101;53.430;-2.224;2024-02-26T02:53:32;100414.99;;;6.04;72.18
46682;BME280;34101;53.430;-2.224;2024-02-26T02:55:59;100415.85;;;6.03;72.19
46682;BME280;34101;53.430;-2.224;2024-02-26T02:58:27;100419.06;;;6.06;72.06
46682;BME280;34101;53.430;-2.224;2024-02-26T03:00:54;100421.07;;;6.01;72.32
46682;BME280;34101;53.430;-2.224;2024-02-26T03:03:22;100421.56;;;6.02;72.40
46682;BME280;34101;53.430;-2.224;2024-02-26T03:05:49;100424.14;;;6.01;72.44
46682;BME280;34101;53.430;-2.224;2024-02-26T03:08:17;100426.75;;;5.99;72.42
46682;BME280;34101;53.430;-2.224;2024-02-26T03:10:44;100431.01;;;5.99;72.55
46682;BME280;34101;53.430;-2.224;2024-02-26T03:13:12;100436.94;;;5.99;72.59
46682;BME280;34101;53.430;-2.224;2024-02-26T03:15:39;100447.18;;;5.99;72.54
46682;BME280;34101;53.430;-2.224;2024-02-26T03:18:06;100452.59;;;5.99;72.56
46682;BME280;34101;53.430;-2.224;2024-02-26T03:20:34;100452.76;;;5.98;72.69
46682;BME280;34101;53.430;-2.224;2024-02-26T03:23:01;100453.46;;;5.95;72.67
46682;BME280;34101;53.430;-2.224;2024-02-26T03:25:29;100457.12;;;5.93;72.81
46682;BME280;34101;53.430;-2.224;2024-02-26T03:27:56;100464.71;;;5.90;72.78
46682;BME280;34101;53.430;-2.224;2024-02-26T03:30:24;100473.72;;;5.89;72.63
46682;BME280;34101;53.430;-2.224;2024-02-26T03:32:51;100477.91;;;5.86;72.68
46682;BME280;34101;53.430;-2.224;2024-02-26T03:35:19;100480.11;;;5.83;72.79
46682;BME280;34101;53.430;-2.224;2024-02-26T03:37:46;100489.50;;;5.81;72.81
46682;BME280;34101;53.430;-2.224;2024-02-26T03:40:14;100494.27;;;5.79;72.98
46682;BME280;34101;53.430;-2.224;2024-02-26T03:42:41;100495.05;;;5.79;73.00
46682;BME280;34101;53.430;-2.224;2024-02-26T03:45:09;100499.26;;;5.78;72.90
46682;BME280;34101;53.430;-2.224;2024-02-26T03:47:38;100500.05;;;5.76;73.13
46682;BME280;34101;53.430;-2.224;2024-02-26T03:50:06;100498.72;;;5.75;73.18
46682;BME280;34101;53.430;-2.224;2024-02-26T03:52:34;100500.63;;;5.73;73.14
46682;BME280;34101;53.430;-2.224;2024-02-26T03:55:01;100504.79;;;5.73;73.21
46682;BME280;34101;53.430;-2.224;2024-02-26T03:57:28;100510.93;;;5.72;73.18
46682;BME280;34101;53.430;-2.224;2024-02-26T03:59:56;100517.99;;;5.70;73.12
46682;BME280;34101;53.430;-2.224;2024-02-26T04:02:23;100524.58;;;5.66;73.14
46682;BME280;34101;53.430;-2.224;2024-02-26T04:04:51;100530.26;;;5.65;73.27
46682;BME280;34101;53.430;-2.224;2024-02-26T04:07:18;100537.31;;;5.65;73.02
46682;BME280;34101;53.430;-2.224;2024-02-26T04:09:46;100546.57;;;5.62;73.35
46682;BME280;34101;53.430;-2.224;2024-02-26T04:12:13;100551.60;;;5.64;73.41
46682;BME280;34101;53.430;-2.224;2024-02-26T04:14:41;100558.05;;;5.65;73.39
46682;BME280;34101;53.430;-2.224;2024-02-26T04:17:08;100563.28;;;5.63;73.50
46682;BME280;34101;53.430;-2.224;2024-02-26T04:19:36;100562.78;;;5.65;73.54
46682;BME280;34101;53.430;-2.224;2024-02-26T04:22:03;100562.08;;;5.60;73.38
46682;BME280;34101;53.430;-2.224;2024-02-26T04:24:31;100564.00;;;5.60;73.64
46682;BME280;34101;53.430;-2.224;2024-02-26T04:26:58;100566.60;;;5.60;73.81
46682;BME280;34101;53.430;-2.224;2024-02-26T04:29:26;100570.45;;;5.60;73.64
46682;BME280;34101;53.430;-2.224;2024-02-26T04:31:53;100575.45;;;5.59;73.70
46682;BME280;34101;53.430;-2.224;2024-02-26T04:34:20;100575.50;;;5.59;73.92
46682;BME280;34101;53.430;-2.224;2024-02-26T04:36:48;100582.06;;;5.60;74.01
46682;BME280;34101;53.430;-2.224;2024-02-26T04:39:15;100581.78;;;5.60;74.08
46682;BME280;34101;53.430;-2.224;2024-02-26T04:41:43;100591.21;;;5.60;74.08
46682;BME280;34101;53.430;-2.224;2024-02-26T04:44:10;100600.87;;;5.59;74.12
46682;BME280;34101;53.430;-2.224;2024-02-26T04:46:38;100611.58;;;5.57;74.16
46682;BME280;34101;53.430;-2.224;2024-02-26T04:49:06;100624.68;;;5.59;74.23
46682;BME280;34101;53.430;-2.224;2024-02-26T04:51:33;100631.03;;;5.59;74.25
46682;BME280;34101;53.430;-2.224;2024-02-26T04:54:00;100637.96;;;5.58;74.31
46682;BME280;34101;53.430;-2.224;2024-02-26T04:56:28;100645.56;;;5.58;74.45
46682;BME280;34101;53.430;-2.224;2024-02-26T04:58:55;100652.01;;;5.59;74.55
46682;BME280;34101;53.430;-2.224;2024-02-26T05:01:23;100662.80;;;5.60;74.54
46682;BME280;34101;53.430;-2.224;2024-02-26T05:03:50;100665.34;;;5.61;74.56
46682;BME280;34101;53.430;-2.224;2024-02-26T05:06:18;100675.67;;;5.61;74.69
46682;BME280;34101;53.430;-2.224;2024-02-26T05:08:45;100685.36;;;5.61;74.64
46682;BME280;34101;53.430;-2.224;2024-02-26T05:11:12;100683.65;;;5.59;74.45
46682;BME280;34101;53.430;-2.224;2024-02-26T05:13:40;100682.58;;;5.60;74.71
46682;BME280;34101;53.430;-2.224;2024-02-26T05:16:08;100688.39;;;5.63;74.76
46682;BME280;34101;53.430;-2.224;2024-02-26T05:18:35;100695.12;;;5.73;74.68
46682;BME280;34101;53.430;-2.224;2024-02-26T05:21:03;100695.52;;;5.79;74.47
46682;BME280;34101;53.430;-2.224;2024-02-26T05:23:30;100701.39;;;5.83;74.33
46682;BME280;34101;53.430;-2.224;2024-02-26T05:25:57;100712.94;;;5.95;74.16
46682;BME280;34101;53.430;-2.224;2024-02-26T05:28:25;100717.84;;;6.05;73.96
46682;BME280;34101;53.430;-2.224;2024-02-26T05:30:52;100723.98;;;6.15;73.80
46682;BME280;34101;53.430;-2.224;2024-02-26T05:33:20;100728.77;;;6.24;73.55
46682;BME280;34101;53.430;-2.224;2024-02-26T05:35:47;100728.01;;;6.25;73.21
46682;BME280;34101;53.430;-2.224;2024-02-26T05:38:15;100736.66;;;6.22;72.76
46682;BME280;34101;53.430;-2.224;2024-02-26T05:40:42;100740.82;;;6.16;72.97
46682;BME280;34101;53.430;-2.224;2024-02-26T05:43:10;100747.74;;;6.16;72.74
46682;BME280;34101;53.430;-2.224;2024-02-26T05:45:37;100745.98;;;6.18;72.43
46682;BME280;34101;53.430;-2.224;2024-02-26T05:48:05;100749.19;;;6.15;72.31
46682;BME280;34101;53.430;-2.224;2024-02-26T05:50:32;100751.81;;;6.13;72.05
46682;BME280;34101;53.430;-2.224;2024-02-26T05:53:00;100754.90;;;6.12;71.90
46682;BME280;34101;53.430;-2.224;2024-02-26T05:55:27;100756.86;;;6.10;71.76
46682;BME280;34101;53.430;-2.224;2024-02-26T05:57:54;100761.68;;;6.10;71.58
46682;BME280;34101;53.430;-2.224;2024-02-26T06:00:22;100763.38;;;6.13;71.41
46682;BME280;34101;53.430;-2.224;2024-02-26T06:02:49;100769.17;;;6.17;71.36
46682;BME280;34101;53.430;-2.224;2024-02-26T06:05:17;100771.89;;;6.18;71.20
46682;BME280;34101;53.430;-2.224;2024-02-26T06:07:44;100776.88;;;6.17;71.47
46682;BME280;34101;53.430;-2.224;2024-02-26T06:10:12;100778.19;;;6.17;71.33
46682;BME280;34101;53.430;-2.224;2024-02-26T06:12:39;100784.73;;;6.16;71.36
46682;BME280;34101;53.430;-2.224;2024-02-26T06:15:07;100788.26;;;6.13;71.33
46682;BME280;34101;53.430;-2.224;2024-02-26T06:17:34;100795.03;;;6.11;71.56
46682;BME280;34101;53.430;-2.224;2024-02-26T06:20:02;100796.67;;;6.12;71.59
46682;BME280;34101;53.430;-2.224;2024-02-26T06:22:30;100798.43;;;6.13;71.74
46682;BME280;34101;53.430;-2.224;2024-02-26T06:24:57;100803.95;;;6.20;71.79
46682;BME280;34101;53.430;-2.224;2024-02-26T06:27:24;100808.08;;;6.19;71.76
46682;BME280;34101;53.430;-2.224;2024-02-26T06:29:51;100815.71;;;6.16;71.88
46682;BME280;34101;53.430;-2.224;2024-02-26T06:32:19;100822.12;;;6.14;71.94
46682;BME280;34101;53.430;-2.224;2024-02-26T06:34:46;100825.54;;;6.16;72.22
46682;BME280;34101;53.430;-2.224;2024-02-26T06:37:13;100831.20;;;6.22;71.97
46682;BME280;34101;53.430;-2.224;2024-02-26T06:39:41;100834.17;;;6.21;72.00
46682;BME280;34101;53.430;-2.224;2024-02-26T06:42:08;100841.32;;;6.16;72.22
46682;BME280;34101;53.430;-2.224;2024-02-26T06:44:36;100853.13;;;6.15;72.40
46682;BME280;34101;53.430;-2.224;2024-02-26T06:47:03;100851.68;;;6.15;72.37
46682;BME280;34101;53.430;-2.224;2024-02-26T06:49:31;100855.07;;;6.09;72.47
46682;BME280;34101;53.430;-2.224;2024-02-26T06:51:58;100861.62;;;6.12;72.75
46682;BME280;34101;53.430;-2.224;2024-02-26T06:54:26;100863.55;;;6.18;72.67
46682;BME280;34101;53.430;-2.224;2024-02-26T06:56:53;100862.91;;;6.23;72.57
46682;BME280;34101;53.430;-2.224;2024-02-26T06:59:20;100868.62;;;6.30;72.38
46682;BME280;34101;53.430;-2.224;2024-02-26T07:01:48;100871.63;;;6.35;72.53
46682;BME280;34101;53.430;-2.224;2024-02-26T07:04:15;100873.25;;;6.38;72.20
46682;BME280;34101;53.430;-2.224;2024-02-26T07:06:43;100871.90;;;6.39;72.16
46682;BME280;34101;53.430;-2.224;2024-02-26T07:09:10;100874.78;;;6.35;72.12
46682;BME280;34101;53.430;-2.224;2024-02-26T07:11:38;100884.53;;;6.35;72.15
46682;BME280;34101;53.430;-2.224;2024-02-26T07:14:06;100891.57;;;6.32;72.31
46682;BME280;34101;53.430;-2.224;2024-02-26T07:16:33;100896.20;;;6.32;72.24
46682;BME280;34101;53.430;-2.224;2024-02-26T07:19:01;100900.34;;;6.27;72.37
46682;BME280;34101;53.430;-2.224;2024-02-26T07:21:28;100907.88;;;6.28;72.37
46682;BME280;34101;53.430;-2.224;2024-02-26T07:23:56;100909.86;;;6.31;72.27
46682;BME280;34101;53.430;-2.224;2024-02-26T07:26:23;100913.89;;;6.33;72.07
46682;BME280;34101;53.430;-2.224;2024-02-26T07:28:50;100922.95;;;6.37;71.86
46682;BME280;34101;53.430;-2.224;2024-02-26T07:31:18;100928.43;;;6.38;71.78
46682;BME280;34101;53.430;-2.224;2024-02-26T07:33:45;100937.75;;;6.38;71.88
46682;BME280;34101;53.430;-2.224;2024-02-26T07:36:13;100942.77;;;6.38;71.81
46682;BME280;34101;53.430;-2.224;2024-02-26T07:38:40;100946.96;;;6.36;71.66
46682;BME280;34101;53.430;-2.224;2024-02-26T07:41:08;100955.56;;;6.41;71.57
46682;BME280;34101;53.430;-2.224;2024-02-26T07:43:35;100955.73;;;6.50;71.48
46682;BME280;34101;53.430;-2.224;2024-02-26T07:46:03;100959.94;;;6.60;71.28
46682;BME280;34101;53.430;-2.224;2024-02-26T07:48:30;100957.44;;;6.64;70.86
46682;BME280;34101;53.430;-2.224;2024-02-26T07:50:58;100959.01;;;6.68;70.78
46682;BME280;34101;53.430;-2.224;2024-02-26T07:53:25;100962.10;;;6.72;70.35
46682;BME280;34101;53.430;-2.224;2024-02-26T07:55:53;100965.61;;;6.81;70.24
46682;BME280;34101;53.430;-2.224;2024-02-26T07:58:20;100967.08;;;6.91;70.10
46682;BME280;34101;53.430;-2.224;2024-02-26T08:00:47;100967.60;;;7.04;69.65
46682;BME280;34101;53.430;-2.224;2024-02-26T08:03:15;100968.57;;;7.17;69.07
46682;BME280;34101;53.430;-2.224;2024-02-26T08:05:42;100975.22;;;7.58;67.81
46682;BME280;34101;53.430;-2.224;2024-02-26T08:08:09;100976.83;;;8.21;66.22
46682;BME280;34101;53.430;-2.224;2024-02-26T08:10:38;100980.74;;;8.95;64.20
46682;BME280;34101;53.430;-2.224;2024-02-26T08:13:05;100975.83;;;9.65;61.92
46682;BME280;34101;53.430;-2.224;2024-02-26T08:15:33;100975.73;;;10.32;59.86
46682;BME280;34101;53.430;-2.224;2024-02-26T08:18:00;100979.02;;;10.89;57.77
46682;BME280;34101;53.430;-2.224;2024-02-26T08:20:28;100979.52;;;11.20;55.18
46682;BME280;34101;53.430;-2.224;2024-02-26T08:22:55;100985.69;;;11.83;54.94
46682;BME280;34101;53.430;-2.224;2024-02-26T08:25:23;100995.70;;;12.30;53.28
46682;BME280;34101;53.430;-2.224;2024-02-26T08:27:50;101001.55;;;12.74;52.17
46682;BME280;34101;53.430;-2.224;2024-02-26T08:30:17;101008.47;;;12.99;50.32
46682;BME280;34101;53.430;-2.224;2024-02-26T08:32:45;101012.45;;;13.43;49.57
46682;BME280;34101;53.430;-2.224;2024-02-26T08:35:12;101012.82;;;13.81;48.81
46682;BME280;34101;53.430;-2.224;2024-02-26T08:37:40;101014.35;;;13.86;47.23
46682;BME280;34101;53.430;-2.224;2024-02-26T08:40:08;101018.32;;;14.00;46.42
46682;BME280;34101;53.430;-2.224;2024-02-26T08:42:36;101023.56;;;14.10;46.15
46682;BME280;34101;53.430;-2.224;2024-02-26T08:45:04;101035.41;;;13.67;47.07
46682;BME280;34101;53.430;-2.224;2024-02-26T08:47:31;101038.98;;;13.20;47.70
46682;BME280;34101;53.430;-2.224;2024-02-26T08:49:59;101042.37;;;13.18;48.41
46682;BME280;34101;53.430;-2.224;2024-02-26T08:52:26;101044.99;;;13.01;48.41
46682;BME280;34101;53.430;-2.224;2024-02-26T08:54:54;101042.17;;;12.77;48.91
46682;BME280;34101;53.430;-2.224;2024-02-26T08:57:21;101044.89;;;12.80;49.58
46682;BME280;34101;53.430;-2.224;2024-02-26T08:59:49;101049.82;;;12.30;50.53
46682;BME280;34101;53.430;-2.224;2024-02-26T09:02:16;101057.60;;;11.79;52.33
46682;BME280;34101;53.430;-2.224;2024-02-26T09:04:43;101062.28;;;11.62;53.02
46682;BME280;34101;53.430;-2.224;2024-02-26T09:07:11;101068.88;;;11.40;53.05
46682;BME280;34101;53.430;-2.224;2024-02-26T09:09:38;101072.09;;;11.19;53.83
46682;BME280;34101;53.430;-2.224;2024-02-26T09:12:06;101074.22;;;11.05;54.99
46682;BME280;34101;53.430;-2.224;2024-02-26T09:14:33;101081.80;;;11.08;55.27
46682;BME280;34101;53.430;-2.224;2024-02-26T09:17:01;101084.18;;;11.19;55.54
46682;BME280;34101;53.430;-2.224;2024-02-26T09:19:28;101083.95;;;11.09;55.53
46682;BME280;34101;53.430;-2.224;2024-02-26T09:21:55;101090.06;;;11.13;55.83
46682;BME280;34101;53.430;-2.224;2024-02-26T09:24:23;101095.10;;;11.13;55.89
46682;BME280;34101;53.430;-2.224;2024-02-26T09:26:50;101097.88;;;11.09;55.46
46682;BME280;34101;53.430;-2.224;2024-02-26T09:29:18;101104.72;;;10.84;56.12
46682;BME280;34101;53.430;-2.224;2024-02-26T09:31:45;101109.15;;;10.64;56.44
46682;BME280;34101;53.430;-2.224;2024-02-26T09:34:13;101111.52;;;10.48;56.33
46682;BME280;34101;53.430;-2.224;2024-02-26T09:36:40;101117.42;;;10.32;57.04
46682;BME280;34101;53.430;-2.224;2024-02-26T09:39:07;101121.25;;;10.20;57.44
46682;BME280;34101;53.430;-2.224;2024-02-26T09:41:35;101128.37;;;10.14;57.75
46682;BME280;34101;53.430;-2.224;2024-02-26T09:44:02;101134.66;;;10.21;57.41
46682;BME280;34101;53.430;-2.224;2024-02-26T09:46:31;101137.02;;;10.17;57.72
46682;BME280;34101;53.430;-2.224;2024-02-26T09:48:59;101139.39;;;10.23;57.55
46682;BME280;34101;53.430;-2.224;2024-02-26T09:51:26;101139.47;;;10.82;56.60
46682;BME280;34101;53.430;-2.224;2024-02-26T09:53:55;101142.21;;;10.96;55.03
46682;BME280;34101;53.430;-2.224;2024-02-26T09:56:23;101143.07;;;10.97;54.73
46682;BME280;34101;53.430;-2.224;2024-02-26T09:58:51;101149.94;;;10.71;54.99
46682;BME280;34101;53.430;-2.224;2024-02-26T10:01:20;101150.26;;;10.65;55.41
46682;BME280;34101;53.430;-2.224;2024-02-26T10:03:52;101153.74;;;10.44;55.52
46682;BME280;34101;53.430;-2.224;2024-02-26T10:06:21;101164.02;;;10.41;55.78
46682;BME280;34101;53.430;-2.224;2024-02-26T10:08:49;101165.85;;;10.31;55.66
46682;BME280;34101;53.430;-2.224;2024-02-26T10:11:17;101174.14;;;10.22;55.87
46682;BME280;34101;53.430;-2.224;2024-02-26T10:13:44;101166.04;;;10.16;55.95
46682;BME280;34101;53.430;-2.224;2024-02-26T10:16:12;101174.03;;;10.14;55.96
46682;BME280;34101;53.430;-2.224;2024-02-26T10:18:48;101170.19;;;10.10;55.73
46682;BME280;34101;53.430;-2.224;2024-02-26T10:21:16;101172.62;;;10.13;55.64
46682;BME280;34101;53.430;-2.224;2024-02-26T10:23:44;101174.14;;;10.26;55.74
46682;BME280;34101;53.430;-2.224;2024-02-26T10:26:11;101178.83;;;10.21;55.66
46682;BME280;34101;53.430;-2.224;2024-02-26T10:28:39;101189.24;;;10.59;55.56
46682;BME280;34101;53.430;-2.224;2024-02-26T10:31:07;101187.76;;;10.67;54.40
46682;BME280;34101;53.430;-2.224;2024-02-26T10:33:35;101192.82;;;10.75;54.57
46682;BME280;34101;53.430;-2.224;2024-02-26T10:36:03;101202.90;;;10.82;54.07
46682;BME280;34101;53.430;-2.224;2024-02-26T10:38:30;101196.31;;;10.85;53.83
46682;BME280;34101;53.430;-2.224;2024-02-26T10:40:57;101204.02;;;10.62;53.29
46682;BME280;34101;53.430;-2.224;2024-02-26T10:43:25;101205.15;;;10.67;53.50
46682;BME280;34101;53.430;-2.224;2024-02-26T10:45:55;101204.09;;;10.87;53.16
46682;BME280;34101;53.430;-2.224;2024-02-26T10:48:27;101201.32;;;11.66;51.78
46682;BME280;34101;53.430;-2.224;2024-02-26T10:50:55;101199.70;;;12.51;49.43
46682;BME280;34101;53.430;-2.224;2024-02-26T10:53:23;101200.83;;;12.92;48.56
46682;BME280;34101;53.430;-2.224;2024-02-26T10:55:55;101201.60;;;12.82;48.49
46682;BME280;34101;53.430;-2.224;2024-02-26T10:58:24;101200.79;;;12.58;48.63
46682;BME280;34101;53.430;-2.224;2024-02-26T11:00:52;101196.49;;;12.36;49.71
46682;BME280;34101;53.430;-2.224;2024-02-26T11:03:20;101207.68;;;11.93;49.73
46682;BME280;34101;53.430;-2.224;2024-02-26T11:05:49;101207.80;;;11.71;50.20
46682;BME280;34101;53.430;-2.224;2024-02-26T11:08:18;101214.47;;;11.37;50.75
46682;BME280;34101;53.430;-2.224;2024-02-26T11:10:47;101226.70;;;11.08;51.45
46682;BME280;34101;53.430;-2.224;2024-02-26T11:13:18;101233.85;;;11.07;51.99
46682;BME280;34101;53.430;-2.224;2024-02-26T11:15:47;101234.59;;;10.88;52.31
46682;BME280;34101;53.430;-2.224;2024-02-26T11:18:15;101241.86;;;10.86;52.73
46682;BME280;34101;53.430;-2.224;2024-02-26T11:20:43;101241.60;;;10.85;52.85
46682;BME280;34101;53.430;-2.224;2024-02-26T11:23:12;101245.07;;;10.62;53.49
46682;BME280;34101;53.430;-2.224;2024-02-26T11:25:39;101248.20;;;10.48;53.93
46682;BME280;34101;53.430;-2.224;2024-02-26T11:28:12;101239.81;;;10.51;53.52
46682;BME280;34101;53.430;-2.224;2024-02-26T11:30:48;101246.41;;;10.48;53.65
46682;BME280;34101;53.430;-2.224;2024-02-26T11:33:16;101246.39;;;10.46;54.08
46682;BME280;34101;53.430;-2.224;2024-02-26T11:35:44;101248.42;;;10.66;53.97
46682;BME280;34101;53.430;-2.224;2024-02-26T11:38:19;101246.15;;;10.89;53.36
46682;BME280;34101;53.430;-2.224;2024-02-26T11:40:47;101239.98;;;11.08;52.90
46682;BME280;34101;53.430;-2.224;2024-02-26T11:43:15;101245.35;;;10.97;52.53
46682;BME280;34101;53.430;-2.224;2024-02-26T11:45:51;101249.15;;;10.89;52.69
46682;BME280;34101;53.430;-2.224;2024-02-26T11:48:21;101257.10;;;10.79;53.01
46682;BME280;34101;53.430;-2.224;2024-02-26T11:50:50;101260.55;;;10.88;53.13
46682;BME280;34101;53.430;-2.224;2024-02-26T11:53:21;101263.37;;;10.92;52.54
46682;BME280;34101;53.430;-2.224;2024-02-26T11:55:53;101270.21;;;11.02;52.62
46682;BME280;34101;53.430;-2.224;2024-02-26T11:58:39;101272.01;;;11.13;52.66
46682;BME280;34101;53.430;-2.224;2024-02-26T12:01:37;101268.91;;;11.13;51.78
46682;BME280;34101;53.430;-2.224;2024-02-26T12:04:05;101275.88;;;10.79;52.38
46682;BME280;34101;53.430;-2.224;2024-02-26T12:06:41;101276.81;;;10.95;51.94
46682;BME280;34101;53.430;-2.224;2024-02-26T12:09:09;101279.37;;;11.03;52.43
46682;BME280;34101;53.430;-2.224;2024-02-26T12:11:38;101280.87;;;11.14;52.44
46682;BME280;34101;53.430;-2.224;2024-02-26T12:14:08;101286.26;;;11.14;52.64
46682;BME280;34101;53.430;-2.224;2024-02-26T12:16:37;101290.54;;;10.93;51.77
46682;BME280;34101;53.430;-2.224;2024-02-26T12:19:06;101290.45;;;10.89;51.93
46682;BME280;34101;53.430;-2.224;2024-02-26T12:21:34;101282.32;;;10.73;51.45
46682;BME280;34101;53.430;-2.224;2024-02-26T12:24:18;101290.86;;;10.82;52.32
46682;BME280;34101;53.430;-2.224;2024-02-26T12:26:45;101291.56;;;10.93;51.48
46682;BME280;34101;53.430;-2.224;2024-02-26T12:29:13;101295.91;;;11.00;51.10
46682;BME280;34101;53.430;-2.224;2024-02-26T12:31:41;101297.16;;;11.12;50.56
46682;BME280;34101;53.430;-2.224;2024-02-26T12:34:09;101300.18;;;11.37;50.37
46682;BME280;34101;53.430;-2.224;2024-02-26T12:36:36;101297.69;;;11.83;49.20
46682;BME280;34101;53.430;-2.224;2024-02-26T12:39:09;101297.86;;;12.30;48.78
46682;BME280;34101;53.430;-2.224;2024-02-26T12:41:38;101302.91;;;12.36;48.56
46682;BME280;34101;53.430;-2.224;2024-02-26T12:44:05;101306.44;;;12.27;48.97
46682;BME280;34101;53.430;-2.224;2024-02-26T12:46:33;101302.85;;;12.04;49.18
46682;BME280;34101;53.430;-2.224;2024-02-26T12:49:00;101300.01;;;11.97;49.02